aviador You're here:

KPSX Decoded Metar

PALACIOS in TX, USA
Report Time2017-12-17 08:00:00
UTC Time2017-12-17 08:12:27
Flight Rules ifr IFR
Wind340° at 06 kt
W.Decomp.*RWY 35: 5.8 kt HW 1.3 kt LCW
RWY 31: 5.3 kt HW 2.7 kt RCW
RWY 26: 1.3 kt HW 5.8 kt RCW
W.Rank340° ranks 19
Current wind is below 340° avg. (9.3)
Visibility9999 m
Phenomena:N/A
Clouds:Overcast 008 Hf
Ceiling800 ft
Temp09°C (ISA -6)
Dew Point09°C (100% RH)
AAT6.6°C
QNH1017 hPa
Density Alt-682 ft
Elevation16 ft
Report Wrong Elevation
Raw Report
KPSX 170800Z AUTO 34006KT 8SM OVC008 09/09 A3003 RMK AO2 CIG
006V010 T00940094=

Extra information for KPSX:More info

Metar Taf Metar & Taf Last 4 Metars F.Rules Stats Wind Profile Meteogram Temp Stats Airport Information Weather charts Add Link Nearby VenuesMetar ALERT Operation Metar Decoded Social comments

AIRNAV info for KPSX